< < Back
Terminal Aerodrome Forecast


Current Version              Previous Versions:   1  2  3  4  5  6  7  8  9  

Terminal Aerodrome Forecast

324
FTUS44 KMOB 011250 AAA
TAFPNS
TAF AMD
KPNS 011250Z 0113/0212 01007KT P6SM BKN007
     FM011400 16008KT P6SM VCTS SCT050CB SCT250
      TEMPO 0120/0124 3SM TSRA BKN040CB BKN250
     FM020300 36005KT P6SM SCT050 BKN250=

Latest METAR

070
SAUS70 KWBC 020000 RRC
MTRPNS
METAR KPNS 012353Z 29005KT 10SM CLR 27/23 A2982 RMK AO2 TSE03 SLP100
60062 T02720233 10322 20256 58005


USA.gov is the U.S. government's official web portal to all federal, state and local government web resources and services.